sensor_id;sensor_type;location;lat;lon;timestamp;temperature;humidity
4376;DHT22;2202;50.866;12.750;2022-11-15T00:00:29;7.90;89.00
4376;DHT22;2202;50.866;12.750;2022-11-15T00:02:56;7.90;89.00
4376;DHT22;2202;50.866;12.750;2022-11-15T00:05:23;8.00;88.80
4376;DHT22;2202;50.866;12.750;2022-11-15T00:07:50;8.00;88.40
4376;DHT22;2202;50.866;12.750;2022-11-15T00:10:17;8.00;88.20
4376;DHT22;2202;50.866;12.750;2022-11-15T00:12:44;8.00;88.00
4376;DHT22;2202;50.866;12.750;2022-11-15T00:15:10;8.00;88.00
4376;DHT22;2202;50.866;12.750;2022-11-15T00:17:39;8.00;88.40
4376;DHT22;2202;50.866;12.750;2022-11-15T00:20:07;8.00;88.20
4376;DHT22;2202;50.866;12.750;2022-11-15T00:22:34;8.00;88.20
4376;DHT22;2202;50.866;12.750;2022-11-15T00:25:01;8.00;88.00
4376;DHT22;2202;50.866;12.750;2022-11-15T00:27:28;8.00;88.00
4376;DHT22;2202;50.866;12.750;2022-11-15T00:29:55;8.00;88.00
4376;DHT22;2202;50.866;12.750;2022-11-15T00:32:22;8.00;88.00
4376;DHT22;2202;50.866;12.750;2022-11-15T00:34:50;8.00;87.80
4376;DHT22;2202;50.866;12.750;2022-11-15T00:37:17;8.00;87.80
4376;DHT22;2202;50.866;12.750;2022-11-15T00:39:44;8.00;87.80
4376;DHT22;2202;50.866;12.750;2022-11-15T00:42:11;8.00;87.80
4376;DHT22;2202;50.866;12.750;2022-11-15T00:44:38;8.00;87.80
4376;DHT22;2202;50.866;12.750;2022-11-15T00:47:04;8.00;87.80
4376;DHT22;2202;50.866;12.750;2022-11-15T00:49:31;8.00;87.60
4376;DHT22;2202;50.866;12.750;2022-11-15T00:51:59;7.90;87.80
4376;DHT22;2202;50.866;12.750;2022-11-15T00:54:26;7.90;88.00
4376;DHT22;2202;50.866;12.750;2022-11-15T00:56:53;7.80;88.40
4376;DHT22;2202;50.866;12.750;2022-11-15T00:59:20;7.80;88.60
4376;DHT22;2202;50.866;12.750;2022-11-15T01:01:47;7.80;88.60
4376;DHT22;2202;50.866;12.750;2022-11-15T01:04:14;7.70;88.80
4376;DHT22;2202;50.866;12.750;2022-11-15T01:06:41;7.70;89.00
4376;DHT22;2202;50.866;12.750;2022-11-15T01:09:09;7.70;89.20
4376;DHT22;2202;50.866;12.750;2022-11-15T01:11:36;7.60;89.40
4376;DHT22;2202;50.866;12.750;2022-11-15T01:14:03;7.60;89.60
4376;DHT22;2202;50.866;12.750;2022-11-15T01:16:30;7.60;89.80
4376;DHT22;2202;50.866;12.750;2022-11-15T01:18:58;7.60;89.80
4376;DHT22;2202;50.866;12.750;2022-11-15T01:21:25;7.60;89.80
4376;DHT22;2202;50.866;12.750;2022-11-15T01:23:53;7.60;89.80
4376;DHT22;2202;50.866;12.750;2022-11-15T01:26:22;7.60;90.00
4376;DHT22;2202;50.866;12.750;2022-11-15T01:28:49;7.60;90.10
4376;DHT22;2202;50.866;12.750;2022-11-15T01:31:17;7.60;90.10
4376;DHT22;2202;50.866;12.750;2022-11-15T01:33:45;7.60;90.00
4376;DHT22;2202;50.866;12.750;2022-11-15T01:36:14;7.60;90.00
4376;DHT22;2202;50.866;12.750;2022-11-15T01:38:41;7.50;90.10
4376;DHT22;2202;50.866;12.750;2022-11-15T01:41:15;7.50;90.10
4376;DHT22;2202;50.866;12.750;2022-11-15T01:43:43;7.50;90.40
4376;DHT22;2202;50.866;12.750;2022-11-15T01:46:23;7.40;90.60
4376;DHT22;2202;50.866;12.750;2022-11-15T01:48:52;7.40;90.60
4376;DHT22;2202;50.866;12.750;2022-11-15T01:51:22;7.40;90.60
4376;DHT22;2202;50.866;12.750;2022-11-15T01:53:54;7.40;90.70
4376;DHT22;2202;50.866;12.750;2022-11-15T01:56:23;7.30;90.80
4376;DHT22;2202;50.866;12.750;2022-11-15T01:58:53;7.30;90.80
4376;DHT22;2202;50.866;12.750;2022-11-15T02:01:24;7.30;91.00
4376;DHT22;2202;50.866;12.750;2022-11-15T02:03:55;7.30;91.00
4376;DHT22;2202;50.866;12.750;2022-11-15T02:06:23;7.30;90.90
4376;DHT22;2202;50.866;12.750;2022-11-15T02:08:50;7.40;91.00
4376;DHT22;2202;50.866;12.750;2022-11-15T02:11:17;7.40;90.90
4376;DHT22;2202;50.866;12.750;2022-11-15T02:13:44;7.50;90.90
4376;DHT22;2202;50.866;12.750;2022-11-15T02:16:18;7.50;90.90
4376;DHT22;2202;50.866;12.750;2022-11-15T02:18:54;7.60;90.70
4376;DHT22;2202;50.866;12.750;2022-11-15T02:21:29;7.60;90.60
4376;DHT22;2202;50.866;12.750;2022-11-15T02:24:34;7.60;90.60
4376;DHT22;2202;50.866;12.750;2022-11-15T02:27:29;7.70;90.50
4376;DHT22;2202;50.866;12.750;2022-11-15T02:30:23;7.70;90.50
4376;DHT22;2202;50.866;12.750;2022-11-15T02:32:53;7.80;90.40
4376;DHT22;2202;50.866;12.750;2022-11-15T02:35:28;7.90;90.30
4376;DHT22;2202;50.866;12.750;2022-11-15T02:37:58;7.90;90.20
4376;DHT22;2202;50.866;12.750;2022-11-15T02:40:34;8.00;90.00
4376;DHT22;2202;50.866;12.750;2022-11-15T02:43:07;8.00;89.80
4376;DHT22;2202;50.866;12.750;2022-11-15T02:46:14;8.00;89.40
4376;DHT22;2202;50.866;12.750;2022-11-15T02:48:43;8.00;89.40
4376;DHT22;2202;50.866;12.750;2022-11-15T02:51:12;8.00;89.80
4376;DHT22;2202;50.866;12.750;2022-11-15T02:53:39;8.00;89.80
4376;DHT22;2202;50.866;12.750;2022-11-15T02:56:09;8.00;89.60
4376;DHT22;2202;50.866;12.750;2022-11-15T02:58:52;8.00;89.40
4376;DHT22;2202;50.866;12.750;2022-11-15T03:01:35;8.00;89.60
4376;DHT22;2202;50.866;12.750;2022-11-15T03:04:14;8.00;89.60
4376;DHT22;2202;50.866;12.750;2022-11-15T03:06:47;7.90;90.10
4376;DHT22;2202;50.866;12.750;2022-11-15T03:09:22;7.90;90.10
4376;DHT22;2202;50.866;12.750;2022-11-15T03:11:56;7.90;90.10
4376;DHT22;2202;50.866;12.750;2022-11-15T03:14:27;7.90;90.20
4376;DHT22;2202;50.866;12.750;2022-11-15T03:17:01;7.90;90.20
4376;DHT22;2202;50.866;12.750;2022-11-15T03:19:33;7.90;90.20
4376;DHT22;2202;50.866;12.750;2022-11-15T03:22:04;7.80;90.20
4376;DHT22;2202;50.866;12.750;2022-11-15T03:24:36;7.80;90.30
4376;DHT22;2202;50.866;12.750;2022-11-15T03:27:06;7.80;90.10
4376;DHT22;2202;50.866;12.750;2022-11-15T03:29:35;7.80;90.10
4376;DHT22;2202;50.866;12.750;2022-11-15T03:32:12;7.80;90.20
4376;DHT22;2202;50.866;12.750;2022-11-15T03:34:43;7.80;90.10
4376;DHT22;2202;50.866;12.750;2022-11-15T03:37:13;7.70;90.30
4376;DHT22;2202;50.866;12.750;2022-11-15T03:39:41;7.70;90.50
4376;DHT22;2202;50.866;12.750;2022-11-15T03:42:16;7.70;90.60
4376;DHT22;2202;50.866;12.750;2022-11-15T03:44:47;7.80;90.60
4376;DHT22;2202;50.866;12.750;2022-11-15T03:47:22;7.80;90.60
4376;DHT22;2202;50.866;12.750;2022-11-15T03:49:52;7.90;90.60
4376;DHT22;2202;50.866;12.750;2022-11-15T03:52:20;7.90;90.60
4376;DHT22;2202;50.866;12.750;2022-11-15T03:54:49;8.00;90.70
4376;DHT22;2202;50.866;12.750;2022-11-15T03:57:16;8.00;90.60
4376;DHT22;2202;50.866;12.750;2022-11-15T03:59:43;8.10;90.50
4376;DHT22;2202;50.866;12.750;2022-11-15T04:02:10;8.10;90.40
4376;DHT22;2202;50.866;12.750;2022-11-15T04:04:38;8.20;90.20
4376;DHT22;2202;50.866;12.750;2022-11-15T04:07:05;8.20;90.20
4376;DHT22;2202;50.866;12.750;2022-11-15T04:09:32;8.20;90.20
4376;DHT22;2202;50.866;12.750;2022-11-15T04:11:59;8.20;90.10
4376;DHT22;2202;50.866;12.750;2022-11-15T04:14:25;8.20;90.00
4376;DHT22;2202;50.866;12.750;2022-11-15T04:16:52;8.30;89.80
4376;DHT22;2202;50.866;12.750;2022-11-15T04:19:19;8.30;89.60
4376;DHT22;2202;50.866;12.750;2022-11-15T04:22:07;8.30;89.40
4376;DHT22;2202;50.866;12.750;2022-11-15T04:24:51;8.30;89.20
4376;DHT22;2202;50.866;12.750;2022-11-15T04:27:18;8.30;89.00
4376;DHT22;2202;50.866;12.750;2022-11-15T04:29:45;8.40;88.80
4376;DHT22;2202;50.866;12.750;2022-11-15T04:32:12;8.40;88.80
4376;DHT22;2202;50.866;12.750;2022-11-15T04:34:39;8.30;88.80
4376;DHT22;2202;50.866;12.750;2022-11-15T04:37:07;8.30;88.60
4376;DHT22;2202;50.866;12.750;2022-11-15T04:39:42;8.30;88.60
4376;DHT22;2202;50.866;12.750;2022-11-15T04:42:10;8.30;88.40
4376;DHT22;2202;50.866;12.750;2022-11-15T04:44:37;8.30;88.40
4376;DHT22;2202;50.866;12.750;2022-11-15T04:47:05;8.30;88.20
4376;DHT22;2202;50.866;12.750;2022-11-15T04:49:31;8.30;88.00
4376;DHT22;2202;50.866;12.750;2022-11-15T04:51:58;8.20;88.20
4376;DHT22;2202;50.866;12.750;2022-11-15T04:54:27;8.20;88.00
4376;DHT22;2202;50.866;12.750;2022-11-15T04:56:54;8.10;87.80
4376;DHT22;2202;50.866;12.750;2022-11-15T04:59:20;8.10;87.80
4376;DHT22;2202;50.866;12.750;2022-11-15T05:01:47;8.00;88.40
4376;DHT22;2202;50.866;12.750;2022-11-15T05:04:14;8.00;88.40
4376;DHT22;2202;50.866;12.750;2022-11-15T05:06:50;8.00;88.80
4376;DHT22;2202;50.866;12.750;2022-11-15T05:09:18;7.90;89.00
4376;DHT22;2202;50.866;12.750;2022-11-15T05:11:47;7.90;89.20
4376;DHT22;2202;50.866;12.750;2022-11-15T05:14:14;7.90;89.20
4376;DHT22;2202;50.866;12.750;2022-11-15T05:16:41;7.90;89.20
4376;DHT22;2202;50.866;12.750;2022-11-15T05:19:08;7.90;89.00
4376;DHT22;2202;50.866;12.750;2022-11-15T05:21:36;7.90;89.20
4376;DHT22;2202;50.866;12.750;2022-11-15T05:24:03;7.80;89.20
4376;DHT22;2202;50.866;12.750;2022-11-15T05:26:30;7.80;89.20
4376;DHT22;2202;50.866;12.750;2022-11-15T05:28:59;7.80;89.20
4376;DHT22;2202;50.866;12.750;2022-11-15T05:31:26;7.80;89.20
4376;DHT22;2202;50.866;12.750;2022-11-15T05:33:54;7.70;89.20
4376;DHT22;2202;50.866;12.750;2022-11-15T05:36:27;7.70;89.40
4376;DHT22;2202;50.866;12.750;2022-11-15T05:38:55;7.60;89.60
4376;DHT22;2202;50.866;12.750;2022-11-15T05:41:26;7.60;89.80
4376;DHT22;2202;50.866;12.750;2022-11-15T05:43:53;7.60;89.80
4376;DHT22;2202;50.866;12.750;2022-11-15T05:46:22;7.60;89.60
4376;DHT22;2202;50.866;12.750;2022-11-15T05:48:50;7.60;89.60
4376;DHT22;2202;50.866;12.750;2022-11-15T05:51:19;7.60;89.20
4376;DHT22;2202;50.866;12.750;2022-11-15T05:53:47;7.70;88.80
4376;DHT22;2202;50.866;12.750;2022-11-15T05:56:15;7.70;88.60
4376;DHT22;2202;50.866;12.750;2022-11-15T05:58:43;7.70;88.20
4376;DHT22;2202;50.866;12.750;2022-11-15T06:01:10;7.70;87.80
4376;DHT22;2202;50.866;12.750;2022-11-15T06:03:38;7.60;87.80
4376;DHT22;2202;50.866;12.750;2022-11-15T06:06:05;7.60;87.80
4376;DHT22;2202;50.866;12.750;2022-11-15T06:08:32;7.50;87.80
4376;DHT22;2202;50.866;12.750;2022-11-15T06:11:04;7.40;88.00
4376;DHT22;2202;50.866;12.750;2022-11-15T06:13:31;7.30;88.00
4376;DHT22;2202;50.866;12.750;2022-11-15T06:15:58;7.30;88.20
4376;DHT22;2202;50.866;12.750;2022-11-15T06:18:25;7.20;88.40
4376;DHT22;2202;50.866;12.750;2022-11-15T06:20:53;7.20;89.00
4376;DHT22;2202;50.866;12.750;2022-11-15T06:23:20;7.10;89.40
4376;DHT22;2202;50.866;12.750;2022-11-15T06:25:47;7.10;89.80
4376;DHT22;2202;50.866;12.750;2022-11-15T06:28:14;7.10;90.00
4376;DHT22;2202;50.866;12.750;2022-11-15T06:30:41;7.10;90.10
4376;DHT22;2202;50.866;12.750;2022-11-15T06:33:07;7.10;90.10
4376;DHT22;2202;50.866;12.750;2022-11-15T06:35:35;7.10;90.00
4376;DHT22;2202;50.866;12.750;2022-11-15T06:38:05;7.10;90.00
4376;DHT22;2202;50.866;12.750;2022-11-15T06:40:33;7.10;90.00
4376;DHT22;2202;50.866;12.750;2022-11-15T06:43:00;7.10;89.80
4376;DHT22;2202;50.866;12.750;2022-11-15T06:45:27;7.10;89.40
4376;DHT22;2202;50.866;12.750;2022-11-15T06:47:54;7.10;89.40
4376;DHT22;2202;50.866;12.750;2022-11-15T06:50:21;7.10;89.40
4376;DHT22;2202;50.866;12.750;2022-11-15T06:52:48;7.10;89.00
4376;DHT22;2202;50.866;12.750;2022-11-15T06:55:16;7.10;89.20
4376;DHT22;2202;50.866;12.750;2022-11-15T06:57:47;7.10;89.20
4376;DHT22;2202;50.866;12.750;2022-11-15T07:00:16;7.10;89.00
4376;DHT22;2202;50.866;12.750;2022-11-15T07:02:43;7.10;89.00
4376;DHT22;2202;50.866;12.750;2022-11-15T07:05:10;7.10;89.00
4376;DHT22;2202;50.866;12.750;2022-11-15T07:07:37;7.10;89.20
4376;DHT22;2202;50.866;12.750;2022-11-15T07:10:06;7.10;89.00
4376;DHT22;2202;50.866;12.750;2022-11-15T07:12:34;7.20;89.00
4376;DHT22;2202;50.866;12.750;2022-11-15T07:15:01;7.30;88.60
4376;DHT22;2202;50.866;12.750;2022-11-15T07:17:28;7.40;88.20
4376;DHT22;2202;50.866;12.750;2022-11-15T07:19:55;7.50;87.60
4376;DHT22;2202;50.866;12.750;2022-11-15T07:22:22;7.60;87.40
4376;DHT22;2202;50.866;12.750;2022-11-15T07:24:49;7.80;86.60
4376;DHT22;2202;50.866;12.750;2022-11-15T07:27:16;7.90;85.60
4376;DHT22;2202;50.866;12.750;2022-11-15T07:29:44;8.30;85.00
4376;DHT22;2202;50.866;12.750;2022-11-15T07:32:11;9.10;83.00
4376;DHT22;2202;50.866;12.750;2022-11-15T07:34:38;10.10;76.60
4376;DHT22;2202;50.866;12.750;2022-11-15T07:37:04;11.00;72.00
4376;DHT22;2202;50.866;12.750;2022-11-15T07:39:31;11.80;67.80
4376;DHT22;2202;50.866;12.750;2022-11-15T07:41:59;12.40;64.40
4376;DHT22;2202;50.866;12.750;2022-11-15T07:44:44;12.90;61.00
4376;DHT22;2202;50.866;12.750;2022-11-15T07:47:11;13.40;60.20
4376;DHT22;2202;50.866;12.750;2022-11-15T07:49:38;14.00;58.20
4376;DHT22;2202;50.866;12.750;2022-11-15T07:52:05;14.50;55.30
4376;DHT22;2202;50.866;12.750;2022-11-15T07:54:32;15.00;54.40
4376;DHT22;2202;50.866;12.750;2022-11-15T07:56:59;15.00;51.80
4376;DHT22;2202;50.866;12.750;2022-11-15T07:59:26;15.00;52.80
4376;DHT22;2202;50.866;12.750;2022-11-15T08:01:54;15.20;52.70
4376;DHT22;2202;50.866;12.750;2022-11-15T08:04:21;15.80;51.40
4376;DHT22;2202;50.866;12.750;2022-11-15T08:06:48;16.20;48.80
4376;DHT22;2202;50.866;12.750;2022-11-15T08:09:14;16.40;47.70
4376;DHT22;2202;50.866;12.750;2022-11-15T08:11:41;16.40;47.30
4376;DHT22;2202;50.866;12.750;2022-11-15T08:14:08;16.30;48.00
4376;DHT22;2202;50.866;12.750;2022-11-15T08:16:35;15.70;49.50
4376;DHT22;2202;50.866;12.750;2022-11-15T08:19:03;14.90;51.80
4376;DHT22;2202;50.866;12.750;2022-11-15T08:21:30;14.60;53.50
4376;DHT22;2202;50.866;12.750;2022-11-15T08:23:57;14.40;53.50
4376;DHT22;2202;50.866;12.750;2022-11-15T08:26:24;14.30;54.30
4376;DHT22;2202;50.866;12.750;2022-11-15T08:28:54;14.10;54.80
4376;DHT22;2202;50.866;12.750;2022-11-15T08:31:21;13.80;55.50
4376;DHT22;2202;50.866;12.750;2022-11-15T08:33:48;13.90;56.40
4376;DHT22;2202;50.866;12.750;2022-11-15T08:36:16;14.00;55.90
4376;DHT22;2202;50.866;12.750;2022-11-15T08:38:43;14.10;55.70
4376;DHT22;2202;50.866;12.750;2022-11-15T08:41:13;13.90;56.20
4376;DHT22;2202;50.866;12.750;2022-11-15T08:43:42;13.50;56.60
4376;DHT22;2202;50.866;12.750;2022-11-15T08:46:11;13.30;58.20
4376;DHT22;2202;50.866;12.750;2022-11-15T08:48:39;12.90;59.40
4376;DHT22;2202;50.866;12.750;2022-11-15T08:51:06;12.70;60.20
4376;DHT22;2202;50.866;12.750;2022-11-15T08:53:35;12.70;61.20
4376;DHT22;2202;50.866;12.750;2022-11-15T08:56:02;12.70;61.40
4376;DHT22;2202;50.866;12.750;2022-11-15T08:58:29;12.70;61.60
4376;DHT22;2202;50.866;12.750;2022-11-15T09:00:56;12.80;61.20
4376;DHT22;2202;50.866;12.750;2022-11-15T09:03:23;12.80;60.40
4376;DHT22;2202;50.866;12.750;2022-11-15T09:05:54;12.90;60.80
4376;DHT22;2202;50.866;12.750;2022-11-15T09:08:22;12.90;61.40
4376;DHT22;2202;50.866;12.750;2022-11-15T09:10:50;13.00;62.20
4376;DHT22;2202;50.866;12.750;2022-11-15T09:13:17;13.10;60.80
4376;DHT22;2202;50.866;12.750;2022-11-15T09:15:44;13.20;59.90
4376;DHT22;2202;50.866;12.750;2022-11-15T09:18:11;13.20;60.80
4376;DHT22;2202;50.866;12.750;2022-11-15T09:20:38;13.20;60.40
4376;DHT22;2202;50.866;12.750;2022-11-15T09:23:05;13.30;60.10
4376;DHT22;2202;50.866;12.750;2022-11-15T09:25:32;13.20;58.70
4376;DHT22;2202;50.866;12.750;2022-11-15T09:28:01;13.20;59.80
4376;DHT22;2202;50.866;12.750;2022-11-15T09:30:32;13.20;59.40
4376;DHT22;2202;50.866;12.750;2022-11-15T09:32:58;13.30;59.80
4376;DHT22;2202;50.866;12.750;2022-11-15T09:35:25;13.40;60.10
4376;DHT22;2202;50.866;12.750;2022-11-15T09:37:52;13.50;59.90
4376;DHT22;2202;50.866;12.750;2022-11-15T09:40:20;13.50;58.70
4376;DHT22;2202;50.866;12.750;2022-11-15T09:43:05;13.50;58.90
4376;DHT22;2202;50.866;12.750;2022-11-15T09:45:41;13.60;58.90
4376;DHT22;2202;50.866;12.750;2022-11-15T09:48:26;13.70;58.30
4376;DHT22;2202;50.866;12.750;2022-11-15T09:51:00;13.70;57.80
4376;DHT22;2202;50.866;12.750;2022-11-15T09:53:32;13.80;59.00
4376;DHT22;2202;50.866;12.750;2022-11-15T09:56:10;13.80;59.00
4376;DHT22;2202;50.866;12.750;2022-11-15T09:58:44;14.00;58.20
4376;DHT22;2202;50.866;12.750;2022-11-15T10:01:20;14.00;58.20
4376;DHT22;2202;50.866;12.750;2022-11-15T10:03:49;14.10;57.40
4376;DHT22;2202;50.866;12.750;2022-11-15T10:06:23;14.20;57.40
4376;DHT22;2202;50.866;12.750;2022-11-15T10:08:56;14.30;57.10
4376;DHT22;2202;50.866;12.750;2022-11-15T10:11:27;14.40;57.60
4376;DHT22;2202;50.866;12.750;2022-11-15T10:13:59;14.50;57.60
4376;DHT22;2202;50.866;12.750;2022-11-15T10:19:37;14.70;59.00
4376;DHT22;2202;50.866;12.750;2022-11-15T10:22:16;14.80;55.70
4376;DHT22;2202;50.866;12.750;2022-11-15T10:24:45;14.90;56.60
4376;DHT22;2202;50.866;12.750;2022-11-15T10:27:15;15.00;56.20
4376;DHT22;2202;50.866;12.750;2022-11-15T10:29:45;15.00;55.70
4376;DHT22;2202;50.866;12.750;2022-11-15T10:32:13;14.90;54.80
4376;DHT22;2202;50.866;12.750;2022-11-15T10:34:40;15.00;55.50
4376;DHT22;2202;50.866;12.750;2022-11-15T10:37:07;15.10;55.00
4376;DHT22;2202;50.866;12.750;2022-11-15T10:39:34;15.10;55.90
4376;DHT22;2202;50.866;12.750;2022-11-15T10:42:16;15.20;55.70
4376;DHT22;2202;50.866;12.750;2022-11-15T10:44:45;15.20;54.10
4376;DHT22;2202;50.866;12.750;2022-11-15T10:47:26;15.20;55.70
4376;DHT22;2202;50.866;12.750;2022-11-15T10:49:56;15.40;55.30
4376;DHT22;2202;50.866;12.750;2022-11-15T10:52:23;15.40;54.60
4376;DHT22;2202;50.866;12.750;2022-11-15T10:54:53;15.60;54.10
4376;DHT22;2202;50.866;12.750;2022-11-15T10:57:23;15.60;53.20
4376;DHT22;2202;50.866;12.750;2022-11-15T10:59:53;15.70;53.00
4376;DHT22;2202;50.866;12.750;2022-11-15T11:02:32;15.80;53.50
4376;DHT22;2202;50.866;12.750;2022-11-15T11:05:00;15.70;52.70
4376;DHT22;2202;50.866;12.750;2022-11-15T11:07:28;15.80;53.70
4376;DHT22;2202;50.866;12.750;2022-11-15T11:10:00;15.90;52.50
4376;DHT22;2202;50.866;12.750;2022-11-15T11:12:29;16.00;53.50
4376;DHT22;2202;50.866;12.750;2022-11-15T11:15:00;16.10;51.60
4376;DHT22;2202;50.866;12.750;2022-11-15T11:17:56;16.20;51.80
4376;DHT22;2202;50.866;12.750;2022-11-15T11:20:28;16.10;51.60
4376;DHT22;2202;50.866;12.750;2022-11-15T11:23:18;16.20;52.30
4376;DHT22;2202;50.866;12.750;2022-11-15T11:25:55;16.10;51.80
4376;DHT22;2202;50.866;12.750;2022-11-15T11:28:36;16.10;52.50
4376;DHT22;2202;50.866;12.750;2022-11-15T11:31:14;16.20;53.40
4376;DHT22;2202;50.866;12.750;2022-11-15T11:33:50;16.20;52.30
4376;DHT22;2202;50.866;12.750;2022-11-15T11:36:25;16.30;51.60
4376;DHT22;2202;50.866;12.750;2022-11-15T11:39:00;16.40;51.20
4376;DHT22;2202;50.866;12.750;2022-11-15T11:41:49;16.40;50.30
4376;DHT22;2202;50.866;12.750;2022-11-15T11:44:27;16.40;51.20
4376;DHT22;2202;50.866;12.750;2022-11-15T11:47:00;16.40;52.10
4376;DHT22;2202;50.866;12.750;2022-11-15T11:49:31;16.50;52.10
4376;DHT22;2202;50.866;12.750;2022-11-15T11:52:04;16.70;50.70
4376;DHT22;2202;50.866;12.750;2022-11-15T11:54:48;16.80;50.30
4376;DHT22;2202;50.866;12.750;2022-11-15T11:57:25;17.00;51.60
4376;DHT22;2202;50.866;12.750;2022-11-15T12:00:01;17.10;51.80
4376;DHT22;2202;50.866;12.750;2022-11-15T12:02:33;17.10;49.80
4376;DHT22;2202;50.866;12.750;2022-11-15T12:05:10;17.30;48.60
4376;DHT22;2202;50.866;12.750;2022-11-15T12:07:39;17.30;49.50
4376;DHT22;2202;50.866;12.750;2022-11-15T12:10:17;17.30;48.60
4376;DHT22;2202;50.866;12.750;2022-11-15T12:12:51;17.20;49.30
4376;DHT22;2202;50.866;12.750;2022-11-15T12:15:23;17.30;49.30
4376;DHT22;2202;50.866;12.750;2022-11-15T12:17:52;17.30;48.80
4376;DHT22;2202;50.866;12.750;2022-11-15T12:20:22;17.30;50.20
4376;DHT22;2202;50.866;12.750;2022-11-15T12:22:54;17.40;49.80
4376;DHT22;2202;50.866;12.750;2022-11-15T12:25:25;17.40;49.10
4376;DHT22;2202;50.866;12.750;2022-11-15T12:27:58;17.40;47.90
4376;DHT22;2202;50.866;12.750;2022-11-15T12:30:41;17.40;47.20
4376;DHT22;2202;50.866;12.750;2022-11-15T12:33:30;17.30;47.50
4376;DHT22;2202;50.866;12.750;2022-11-15T12:35:59;17.40;49.30
4376;DHT22;2202;50.866;12.750;2022-11-15T12:38:52;17.40;48.00
4376;DHT22;2202;50.866;12.750;2022-11-15T12:41:20;17.30;48.80
4376;DHT22;2202;50.866;12.750;2022-11-15T12:43:48;17.40;48.60
4376;DHT22;2202;50.866;12.750;2022-11-15T12:49:10;17.40;47.90
4376;DHT22;2202;50.866;12.750;2022-11-15T12:52:06;17.40;47.90
4376;DHT22;2202;50.866;12.750;2022-11-15T12:54:54;17.40;47.50
4376;DHT22;2202;50.866;12.750;2022-11-15T12:57:33;17.30;46.10
4376;DHT22;2202;50.866;12.750;2022-11-15T13:00:04;17.20;46.40
4376;DHT22;2202;50.866;12.750;2022-11-15T13:02:33;17.20;48.60
4376;DHT22;2202;50.866;12.750;2022-11-15T13:05:56;17.20;47.90
4376;DHT22;2202;50.866;12.750;2022-11-15T13:08:51;17.20;47.50
4376;DHT22;2202;50.866;12.750;2022-11-15T13:11:45;17.10;47.30
4376;DHT22;2202;50.866;12.750;2022-11-15T13:14:39;17.20;47.70
4376;DHT22;2202;50.866;12.750;2022-11-15T13:17:32;17.20;47.30
4376;DHT22;2202;50.866;12.750;2022-11-15T13:22:59;17.10;47.30
4376;DHT22;2202;50.866;12.750;2022-11-15T13:26:02;17.10;47.70
4376;DHT22;2202;50.866;12.750;2022-11-15T13:28:34;17.10;47.50
4376;DHT22;2202;50.866;12.750;2022-11-15T13:33:59;17.00;48.80
4376;DHT22;2202;50.866;12.750;2022-11-15T13:36:28;16.80;49.10
4376;DHT22;2202;50.866;12.750;2022-11-15T13:38:58;16.90;50.20
4376;DHT22;2202;50.866;12.750;2022-11-15T13:41:27;16.80;48.90
4376;DHT22;2202;50.866;12.750;2022-11-15T13:43:56;16.80;49.10
4376;DHT22;2202;50.866;12.750;2022-11-15T13:46:25;16.70;49.10
4376;DHT22;2202;50.866;12.750;2022-11-15T13:48:55;16.70;50.50
4376;DHT22;2202;50.866;12.750;2022-11-15T13:51:31;16.60;49.50
4376;DHT22;2202;50.866;12.750;2022-11-15T13:54:03;16.60;50.20
4376;DHT22;2202;50.866;12.750;2022-11-15T13:56:35;16.50;51.10
4376;DHT22;2202;50.866;12.750;2022-11-15T13:59:09;16.40;50.30
4376;DHT22;2202;50.866;12.750;2022-11-15T14:01:36;16.40;51.10
4376;DHT22;2202;50.866;12.750;2022-11-15T14:04:03;16.40;53.00
4376;DHT22;2202;50.866;12.750;2022-11-15T14:06:30;16.20;50.70
4376;DHT22;2202;50.866;12.750;2022-11-15T14:09:03;16.10;52.30
4376;DHT22;2202;50.866;12.750;2022-11-15T14:11:30;16.10;52.50
4376;DHT22;2202;50.866;12.750;2022-11-15T14:14:13;16.00;53.00
4376;DHT22;2202;50.866;12.750;2022-11-15T14:16:42;15.90;52.50
4376;DHT22;2202;50.866;12.750;2022-11-15T14:19:11;15.80;54.30
4376;DHT22;2202;50.866;12.750;2022-11-15T14:22:13;15.70;54.40
4376;DHT22;2202;50.866;12.750;2022-11-15T14:24:43;15.60;53.40
4376;DHT22;2202;50.866;12.750;2022-11-15T14:27:22;15.40;55.00
4376;DHT22;2202;50.866;12.750;2022-11-15T14:29:50;15.30;55.00
4376;DHT22;2202;50.866;12.750;2022-11-15T14:32:18;15.20;55.70
4376;DHT22;2202;50.866;12.750;2022-11-15T14:34:46;15.20;56.90
4376;DHT22;2202;50.866;12.750;2022-11-15T14:37:20;15.10;56.70
4376;DHT22;2202;50.866;12.750;2022-11-15T14:39:50;15.00;57.40
4376;DHT22;2202;50.866;12.750;2022-11-15T14:42:18;14.90;58.50
4376;DHT22;2202;50.866;12.750;2022-11-15T14:44:46;14.70;58.90
4376;DHT22;2202;50.866;12.750;2022-11-15T14:47:13;14.60;60.40
4376;DHT22;2202;50.866;12.750;2022-11-15T14:49:40;14.40;61.80
4376;DHT22;2202;50.866;12.750;2022-11-15T14:52:24;14.30;62.20
4376;DHT22;2202;50.866;12.750;2022-11-15T14:54:52;14.10;62.60
4376;DHT22;2202;50.866;12.750;2022-11-15T14:57:19;14.00;63.20
4376;DHT22;2202;50.866;12.750;2022-11-15T14:59:46;13.90;63.80
4376;DHT22;2202;50.866;12.750;2022-11-15T15:02:17;13.70;64.40
4376;DHT22;2202;50.866;12.750;2022-11-15T15:04:44;13.40;65.00
4376;DHT22;2202;50.866;12.750;2022-11-15T15:07:11;13.20;65.60
4376;DHT22;2202;50.866;12.750;2022-11-15T15:09:38;12.90;66.20
4376;DHT22;2202;50.866;12.750;2022-11-15T15:12:13;12.70;67.00
4376;DHT22;2202;50.866;12.750;2022-11-15T15:14:41;12.50;68.00
4376;DHT22;2202;50.866;12.750;2022-11-15T15:17:07;12.30;68.60
4376;DHT22;2202;50.866;12.750;2022-11-15T15:19:34;12.10;69.20
4376;DHT22;2202;50.866;12.750;2022-11-15T15:22:01;11.80;70.00
4376;DHT22;2202;50.866;12.750;2022-11-15T15:24:28;11.60;70.80
4376;DHT22;2202;50.866;12.750;2022-11-15T15:26:55;11.30;72.00
4376;DHT22;2202;50.866;12.750;2022-11-15T15:29:23;11.10;73.00
4376;DHT22;2202;50.866;12.750;2022-11-15T15:31:50;11.00;73.80
4376;DHT22;2202;50.866;12.750;2022-11-15T15:34:17;10.90;74.00
4376;DHT22;2202;50.866;12.750;2022-11-15T15:36:43;10.80;74.20
4376;DHT22;2202;50.866;12.750;2022-11-15T15:39:10;10.60;74.60
4376;DHT22;2202;50.866;12.750;2022-11-15T15:41:37;10.40;75.60
4376;DHT22;2202;50.866;12.750;2022-11-15T15:44:04;10.20;76.60
4376;DHT22;2202;50.866;12.750;2022-11-15T15:46:34;10.10;77.00
4376;DHT22;2202;50.866;12.750;2022-11-15T15:49:01;9.90;78.00
4376;DHT22;2202;50.866;12.750;2022-11-15T15:51:27;9.70;78.80
4376;DHT22;2202;50.866;12.750;2022-11-15T15:53:54;9.60;78.60
4376;DHT22;2202;50.866;12.750;2022-11-15T15:56:23;9.50;78.60
4376;DHT22;2202;50.866;12.750;2022-11-15T15:58:50;9.50;78.60
4376;DHT22;2202;50.866;12.750;2022-11-15T16:01:18;9.40;79.00
4376;DHT22;2202;50.866;12.750;2022-11-15T16:03:46;9.30;79.40
4376;DHT22;2202;50.866;12.750;2022-11-15T16:06:32;9.20;79.80
4376;DHT22;2202;50.866;12.750;2022-11-15T16:09:00;9.00;80.80
4376;DHT22;2202;50.866;12.750;2022-11-15T16:11:27;8.90;81.40
4376;DHT22;2202;50.866;12.750;2022-11-15T16:13:53;8.70;82.20
4376;DHT22;2202;50.866;12.750;2022-11-15T16:16:21;8.70;82.80
4376;DHT22;2202;50.866;12.750;2022-11-15T16:18:49;8.70;83.40
4376;DHT22;2202;50.866;12.750;2022-11-15T16:21:16;8.60;83.80
4376;DHT22;2202;50.866;12.750;2022-11-15T16:23:43;8.50;84.20
4376;DHT22;2202;50.866;12.750;2022-11-15T16:26:18;8.40;84.40
4376;DHT22;2202;50.866;12.750;2022-11-15T16:28:46;8.40;84.20